Time;durP1;ratioP1;P1;durP2;ratioP2;P2;SDS_P1;SDS_P2;PMS_P1;PMS_P2;Temp;Humidity;BMP_temperature;BMP_pressure;BME280_temperature;BME280_humidity;BME280_pressure;Samples;Min_cycle;Max_cycle;Signal;HPM_P1;HPM_P2
2023/03/20 00:00:19;;;;;;;1.60;1.20;;;17.40;67.30;;;;;;5118177;27;45286;-74
2023/03/20 00:02:46;;;;;;;1.35;1.10;;;17.40;67.20;;;;;;5114271;27;45592;-74
2023/03/20 00:05:20;;;;;;;1.20;1.10;;;17.40;66.80;;;;;;5092204;27;47883;-74
2023/03/20 00:07:48;;;;;;;1.52;1.15;;;17.40;66.70;;;;;;5101069;27;45475;-74
2023/03/20 00:10:16;;;;;;;2.22;1.40;;;17.40;66.70;;;;;;5119690;27;45550;-74
2023/03/20 00:12:47;;;;;;;1.80;1.35;;;17.40;66.80;;;;;;5086421;27;45320;-74
2023/03/20 00:15:29;;;;;;;1.48;1.25;;;17.40;66.60;;;;;;5097565;27;47443;-73
2023/03/20 00:17:57;;;;;;;2.28;1.40;;;17.40;66.80;;;;;;5087077;27;45272;-74
2023/03/20 00:20:24;;;;;;;2.67;1.67;;;17.40;66.90;;;;;;5101841;27;45276;-73
2023/03/20 00:22:52;;;;;;;1.67;1.48;;;17.50;67.00;;;;;;5090485;27;45471;-74
2023/03/20 00:25:21;;;;;;;1.90;1.30;;;17.50;66.90;;;;;;5110521;27;47364;-74
2023/03/20 00:27:50;;;;;;;1.75;1.02;;;17.50;67.00;;;;;;5101961;27;45266;-74
2023/03/20 00:30:23;;;;;;;1.55;1.30;;;17.50;67.10;;;;;;5104909;27;45381;-73
2023/03/20 00:32:51;;;;;;;1.48;1.13;;;17.50;67.10;;;;;;5112878;27;45471;-74
2023/03/20 00:35:21;;;;;;;1.77;1.02;;;17.50;67.10;;;;;;5094448;27;47631;-73
2023/03/20 00:37:48;;;;;;;2.50;1.35;;;17.50;67.20;;;;;;5098293;27;45284;-74
2023/03/20 00:40:15;;;;;;;1.23;1.02;;;17.50;67.20;;;;;;5110344;27;45359;-74
2023/03/20 00:42:43;;;;;;;1.65;1.13;;;17.50;67.30;;;;;;5124980;27;45360;-74
2023/03/20 00:45:14;;;;;;;1.70;0.95;;;17.50;67.30;;;;;;5123873;27;46574;-74
2023/03/20 00:47:42;;;;;;;1.35;0.95;;;17.50;67.30;;;;;;5120086;27;45475;-74
2023/03/20 00:50:16;;;;;;;1.38;0.95;;;17.50;67.30;;;;;;5119932;27;45379;-74
2023/03/20 00:52:44;;;;;;;2.50;1.20;;;17.50;67.30;;;;;;5110182;27;45385;-74
2023/03/20 00:55:10;;;;;;;1.95;1.00;;;17.50;67.50;;;;;;5103913;27;45484;-74
2023/03/20 00:57:42;;;;;;;1.38;1.20;;;17.50;67.50;;;;;;5093738;27;45219;-74
2023/03/20 01:00:30;;;;;;;1.60;1.10;;;17.50;67.50;;;;;;5093679;27;45480;-74
2023/03/20 01:02:58;;;;;;;1.15;1.00;;;17.40;67.40;;;;;;5090811;27;45493;-74
2023/03/20 01:05:26;;;;;;;1.08;0.82;;;17.50;67.60;;;;;;5104339;27;48063;-74
2023/03/20 01:07:53;;;;;;;1.10;0.93;;;17.50;67.60;;;;;;5111072;27;45484;-74
2023/03/20 01:10:20;;;;;;;1.23;1.10;;;17.50;67.50;;;;;;5112749;27;45390;-74
2023/03/20 01:12:47;;;;;;;2.70;1.15;;;17.50;67.30;;;;;;5102771;27;45553;-73
2023/03/20 01:15:21;;;;;;;1.10;1.00;;;17.50;67.40;;;;;;5094023;27;47274;-74
2023/03/20 01:17:48;;;;;;;2.33;1.38;;;17.50;68.40;;;;;;5098079;27;45264;-74
2023/03/20 01:20:18;;;;;;;1.75;1.17;;;17.50;68.30;;;;;;5096812;27;45372;-74
2023/03/20 01:22:45;;;;;;;1.67;1.25;;;17.50;67.20;;;;;;5112663;27;45387;-73
2023/03/20 01:25:12;;;;;;;2.65;1.52;;;17.50;67.20;;;;;;5120813;27;47057;-74
2023/03/20 01:27:39;;;;;;;1.30;1.20;;;17.50;67.30;;;;;;5091252;27;45235;-74
2023/03/20 01:30:16;;;;;;;2.80;1.45;;;17.50;67.20;;;;;;5107764;27;45290;-73
2023/03/20 01:32:45;;;;;;;1.42;0.95;;;17.50;67.20;;;;;;5103636;27;45439;-73
2023/03/20 01:35:14;;;;;;;2.13;1.30;;;17.50;67.10;;;;;;5095125;27;46586;-73
2023/03/20 01:37:41;;;;;;;2.17;1.38;;;17.50;67.20;;;;;;5104895;27;45362;-74
2023/03/20 01:40:19;;;;;;;1.38;1.15;;;17.50;67.10;;;;;;5106099;27;45498;-73
2023/03/20 01:42:46;;;;;;;1.45;1.08;;;17.50;67.00;;;;;;5117736;27;45380;-74
2023/03/20 01:45:16;;;;;;;1.00;0.88;;;17.50;67.10;;;;;;5113043;27;45521;-73
2023/03/20 01:47:44;;;;;;;1.20;0.90;;;17.50;67.10;;;;;;5106587;27;45346;-73
2023/03/20 01:50:25;;;;;;;3.78;1.20;;;17.50;67.10;;;;;;5119179;27;45299;-74
2023/03/20 01:52:57;;;;;;;1.67;1.25;;;17.50;67.10;;;;;;5089477;27;45397;-73
2023/03/20 01:55:24;;;;;;;1.70;1.40;;;17.50;67.10;;;;;;5084992;27;45621;-73
2023/03/20 01:57:54;;;;;;;2.53;1.63;;;17.50;67.10;;;;;;5099773;27;45219;-74
2023/03/20 02:00:22;;;;;;;2.28;1.58;;;17.40;66.90;;;;;;5100759;27;45254;-74
2023/03/20 02:02:51;;;;;;;1.27;1.13;;;17.40;66.80;;;;;;5097888;27;45306;-74
2023/03/20 02:05:21;;;;;;;1.80;1.20;;;17.50;66.80;;;;;;5098627;27;48664;-74
2023/03/20 02:07:55;;;;;;;2.05;1.30;;;17.50;66.70;;;;;;5111328;27;45341;-73
2023/03/20 02:10:23;;;;;;;1.33;1.15;;;17.50;66.80;;;;;;5105249;27;45342;-73
2023/03/20 02:12:50;;;;;;;1.92;1.20;;;17.50;66.90;;;;;;5106061;27;45663;-74
2023/03/20 02:15:18;;;;;;;1.00;0.90;;;17.50;66.90;;;;;;5108546;27;46575;-74
2023/03/20 02:17:45;;;;;;;1.40;1.13;;;17.50;66.80;;;;;;5110591;27;45396;-73
2023/03/20 02:20:23;;;;;;;1.50;1.10;;;17.50;66.70;;;;;;5094974;27;45447;-75
2023/03/20 02:23:29;;;;;;;2.28;1.15;;;17.50;66.70;;;;;;5089154;27;45315;-74
2023/03/20 02:26:39;;;;;;;1.55;1.10;;;17.50;66.70;;;;;;5089595;27;46378;-74
2023/03/20 02:29:46;;;;;;;1.58;1.17;;;17.50;66.50;;;;;;5069438;27;45507;-74
2023/03/20 02:33:01;;;;;;;2.30;1.30;;;17.50;66.40;;;;;;5119091;27;45362;-74
2023/03/20 02:36:11;;;;;;;2.50;1.30;;;17.50;66.40;;;;;;5103113;27;45252;-74
2023/03/20 02:39:02;;;;;;;1.70;1.20;;;17.50;66.20;;;;;;5016287;28;47520;-74
2023/03/20 02:41:32;;;;;;;1.67;1.38;;;17.50;66.10;;;;;;5096484;27;45685;-74
2023/03/20 02:44:06;;;;;;;2.22;1.52;;;17.50;66.10;;;;;;5111670;27;45301;-74
2023/03/20 02:46:43;;;;;;;1.77;1.38;;;17.50;66.10;;;;;;5108410;27;45547;-74
2023/03/20 02:49:20;;;;;;;3.40;1.30;;;17.50;66.10;;;;;;5110098;27;45305;-74
2023/03/20 02:51:55;;;;;;;2.10;1.42;;;17.40;65.70;;;;;;5111790;27;45413;-74
2023/03/20 02:54:32;;;;;;;2.20;1.42;;;17.40;65.70;;;;;;5105433;27;45360;-73
2023/03/20 02:57:03;;;;;;;1.48;1.23;;;17.40;65.90;;;;;;5095414;27;45496;-73
2023/03/20 02:59:34;;;;;;;2.88;1.45;;;17.40;65.90;;;;;;5105038;27;48802;-74
2023/03/20 03:02:07;;;;;;;2.30;1.60;;;17.40;65.70;;;;;;5103788;27;45415;-74
2023/03/20 03:04:38;;;;;;;3.53;1.50;;;17.50;66.00;;;;;;5118782;27;45430;-74
2023/03/20 03:07:07;;;;;;;1.70;1.35;;;17.50;66.30;;;;;;5115425;27;45395;-73
2023/03/20 03:09:40;;;;;;;1.42;1.20;;;17.50;66.20;;;;;;5095315;27;46684;-73
2023/03/20 03:12:12;;;;;;;1.83;1.50;;;17.50;66.10;;;;;;5095747;27;45755;-73
2023/03/20 03:14:43;;;;;;;1.63;1.30;;;17.50;66.30;;;;;;5111016;27;45433;-74
2023/03/20 03:17:11;;;;;;;1.60;1.20;;;17.50;66.30;;;;;;5104982;27;45427;-73
2023/03/20 03:19:42;;;;;;;1.50;1.30;;;17.50;66.30;;;;;;5116588;27;45408;-73
2023/03/20 03:22:09;;;;;;;1.85;1.35;;;17.50;66.50;;;;;;5111232;27;45498;-73
2023/03/20 03:24:43;;;;;;;2.10;1.52;;;17.50;67.50;;;;;;5106758;27;45378;-73
2023/03/20 03:27:17;;;;;;;2.03;1.40;;;17.50;66.30;;;;;;5121783;27;45450;-73
2023/03/20 03:29:47;;;;;;;2.20;1.45;;;17.50;66.40;;;;;;5103042;27;45449;-73
2023/03/20 03:32:25;;;;;;;1.88;1.60;;;17.50;66.40;;;;;;5103525;27;45778;-74
2023/03/20 03:34:52;;;;;;;1.70;1.40;;;17.50;66.50;;;;;;5096914;27;45377;-74
2023/03/20 03:37:27;;;;;;;1.70;1.30;;;17.40;66.30;;;;;;5092114;27;45492;-74
2023/03/20 03:40:05;;;;;;;1.40;1.17;;;17.40;66.30;;;;;;5095222;27;45383;-74
2023/03/20 03:42:37;;;;;;;1.98;1.60;;;17.40;66.20;;;;;;5093994;27;45372;-74
2023/03/20 03:45:08;;;;;;;1.85;1.60;;;17.40;66.30;;;;;;5111988;27;45309;-74
2023/03/20 03:47:39;;;;;;;1.50;1.40;;;17.40;66.10;;;;;;5093472;27;45249;-74
2023/03/20 03:50:10;;;;;;;1.40;1.30;;;17.40;66.10;;;;;;5108455;27;47537;-74
2023/03/20 03:52:38;;;;;;;2.80;1.52;;;17.40;66.00;;;;;;5111942;27;45439;-74
2023/03/20 03:55:11;;;;;;;1.85;1.42;;;17.40;65.90;;;;;;5111036;27;45264;-74
2023/03/20 03:57:42;;;;;;;1.75;1.23;;;17.40;66.00;;;;;;5106523;27;45373;-74
2023/03/20 04:00:15;;;;;;;1.65;1.40;;;17.40;65.90;;;;;;5103764;27;47161;-74
2023/03/20 04:02:43;;;;;;;1.75;1.35;;;17.40;65.90;;;;;;5087891;27;45257;-74
2023/03/20 04:05:11;;;;;;;1.38;1.10;;;17.40;66.00;;;;;;5104094;27;45481;-74
2023/03/20 04:07:39;;;;;;;1.10;0.95;;;17.40;65.70;;;;;;5105609;27;45497;-74
2023/03/20 04:10:08;;;;;;;1.70;1.35;;;17.40;65.90;;;;;;5101932;27;48471;-74
2023/03/20 04:12:37;;;;;;;2.47;1.30;;;17.40;65.90;;;;;;5092476;27;45606;-74
2023/03/20 04:15:05;;;;;;;1.95;1.23;;;17.40;65.90;;;;;;5110519;27;45346;-74
2023/03/20 04:17:32;;;;;;;1.50;1.30;;;17.40;66.00;;;;;;5097813;27;45540;-74
2023/03/20 04:19:59;;;;;;;1.52;1.20;;;17.40;66.10;;;;;;5104237;27;46082;-74
2023/03/20 04:22:26;;;;;;;1.70;1.13;;;17.50;66.10;;;;;;5105761;27;45384;-74
2023/03/20 04:24:53;;;;;;;1.60;1.35;;;17.40;66.00;;;;;;5105448;27;45360;-74
2023/03/20 04:27:21;;;;;;;1.27;1.10;;;17.40;65.90;;;;;;5088948;27;45616;-74
2023/03/20 04:29:48;;;;;;;1.90;1.20;;;17.40;65.70;;;;;;5099715;27;48025;-74
2023/03/20 04:32:15;;;;;;;1.20;1.10;;;17.40;65.70;;;;;;5125877;27;45633;-74
2023/03/20 04:34:42;;;;;;;3.08;1.40;;;17.40;65.70;;;;;;5109386;27;45362;-75
2023/03/20 04:37:09;;;;;;;1.15;1.00;;;17.40;65.90;;;;;;5097122;27;45313;-74
2023/03/20 04:39:36;;;;;;;2.20;1.25;;;17.40;65.70;;;;;;5096815;27;47309;-74
2023/03/20 04:42:04;;;;;;;1.45;1.27;;;17.40;65.60;;;;;;5114490;27;45409;-74
2023/03/20 04:44:32;;;;;;;1.70;1.10;;;17.40;65.60;;;;;;5111234;27;45512;-75
2023/03/20 04:46:59;;;;;;;1.98;1.38;;;17.30;65.30;;;;;;5097748;27;45368;-74
2023/03/20 04:49:26;;;;;;;1.48;1.15;;;17.40;65.50;;;;;;5097042;27;46353;-74
2023/03/20 04:51:53;;;;;;;2.03;1.30;;;17.40;65.40;;;;;;5101706;27;45280;-74
2023/03/20 04:54:20;;;;;;;3.42;1.10;;;17.30;65.50;;;;;;5099924;27;45392;-74
2023/03/20 04:56:47;;;;;;;1.45;1.15;;;17.40;65.60;;;;;;5090297;27;45481;-74
2023/03/20 04:59:14;;;;;;;1.58;1.15;;;17.40;65.80;;;;;;5100361;27;45567;-74
2023/03/20 05:01:42;;;;;;;1.50;1.13;;;17.40;65.60;;;;;;5091518;27;45347;-74
2023/03/20 05:04:09;;;;;;;1.70;1.20;;;17.40;65.60;;;;;;5092699;27;45532;-74
2023/03/20 05:06:35;;;;;;;1.60;1.20;;;17.40;65.60;;;;;;5089896;27;45695;-74
2023/03/20 05:09:02;;;;;;;1.38;1.13;;;17.40;65.60;;;;;;5098380;27;46628;-74
2023/03/20 05:11:30;;;;;;;1.60;1.08;;;17.40;65.60;;;;;;5094748;27;45651;-74
2023/03/20 05:13:56;;;;;;;1.65;1.20;;;17.40;65.40;;;;;;5110581;27;45464;-75
2023/03/20 05:16:24;;;;;;;1.50;1.40;;;17.40;65.60;;;;;;5094287;27;45275;-74
2023/03/20 05:18:52;;;;;;;2.40;1.55;;;17.40;65.50;;;;;;5094318;27;46234;-74
2023/03/20 05:21:19;;;;;;;1.88;1.38;;;17.40;65.40;;;;;;5100829;27;45314;-74
2023/03/20 05:23:46;;;;;;;2.10;1.40;;;17.40;65.40;;;;;;5112811;27;45262;-74
2023/03/20 05:26:12;;;;;;;1.48;1.20;;;17.40;65.20;;;;;;5092301;27;45521;-74
2023/03/20 05:28:39;;;;;;;2.00;1.40;;;17.40;65.30;;;;;;5101699;27;45534;-74
2023/03/20 05:31:06;;;;;;;1.55;1.20;;;17.40;65.20;;;;;;5106039;27;45323;-75
2023/03/20 05:33:33;;;;;;;1.30;1.20;;;17.40;65.20;;;;;;5097534;27;45354;-74
2023/03/20 05:36:01;;;;;;;3.10;1.50;;;17.40;65.20;;;;;;5104378;27;45709;-74
2023/03/20 05:38:28;;;;;;;4.55;1.30;;;17.40;65.40;;;;;;5115254;27;46442;-74
2023/03/20 05:40:58;;;;;;;2.17;1.45;;;17.40;65.30;;;;;;5117915;27;45276;-75
2023/03/20 05:43:25;;;;;;;2.58;1.50;;;17.40;65.20;;;;;;5088164;27;45340;-74
2023/03/20 05:45:52;;;;;;;1.92;1.38;;;17.40;65.20;;;;;;5098174;27;45292;-74
2023/03/20 05:48:19;;;;;;;1.73;1.15;;;17.40;65.20;;;;;;5096611;27;47379;-75
2023/03/20 05:50:46;;;;;;;1.50;1.27;;;17.30;65.40;;;;;;5115127;27;45454;-75
2023/03/20 05:53:15;;;;;;;2.10;1.60;;;17.30;65.60;;;;;;5096172;27;45483;-74
2023/03/20 05:55:43;;;;;;;2.70;1.58;;;17.20;65.70;;;;;;5098790;27;45405;-74
2023/03/20 05:58:10;;;;;;;2.30;1.42;;;17.20;65.70;;;;;;5120159;27;47300;-74
2023/03/20 06:00:37;;;;;;;3.03;1.60;;;17.20;65.70;;;;;;5115246;27;45509;-74
2023/03/20 06:03:05;;;;;;;3.25;1.50;;;17.20;65.70;;;;;;5095045;27;45454;-75
2023/03/20 06:05:32;;;;;;;1.98;1.60;;;17.20;65.60;;;;;;5104281;27;45407;-73
2023/03/20 06:07:59;;;;;;;2.38;1.60;;;17.30;65.60;;;;;;5095341;27;46252;-74
2023/03/20 06:10:28;;;;;;;1.85;1.60;;;17.30;65.70;;;;;;5086740;27;45398;-74
2023/03/20 06:12:55;;;;;;;2.30;1.60;;;17.30;65.50;;;;;;5097825;27;45423;-74
2023/03/20 06:15:22;;;;;;;1.73;1.25;;;17.30;65.50;;;;;;5098337;27;45504;-74
2023/03/20 06:17:49;;;;;;;2.60;1.70;;;17.30;65.40;;;;;;5099895;27;45422;-74
2023/03/20 06:20:17;;;;;;;2.85;1.60;;;17.30;65.40;;;;;;5101434;27;45992;-75
2023/03/20 06:22:45;;;;;;;2.55;1.55;;;17.30;65.40;;;;;;5108594;27;45392;-74
2023/03/20 06:25:12;;;;;;;2.22;1.35;;;17.30;65.30;;;;;;5097555;27;45407;-74
2023/03/20 06:27:40;;;;;;;2.60;1.65;;;17.30;65.20;;;;;;5103840;27;47803;-74
2023/03/20 06:30:08;;;;;;;1.85;1.25;;;17.30;64.50;;;;;;5089030;27;45407;-75
2023/03/20 06:32:35;;;;;;;2.08;1.58;;;17.30;65.00;;;;;;5109168;27;45467;-73
2023/03/20 06:35:01;;;;;;;3.05;1.58;;;17.30;64.30;;;;;;5099362;27;45565;-73
2023/03/20 06:37:28;;;;;;;2.25;1.80;;;17.30;64.50;;;;;;5110387;27;47717;-73
2023/03/20 06:39:55;;;;;;;2.13;1.60;;;17.20;64.50;;;;;;5088088;27;45272;-74
2023/03/20 06:42:22;;;;;;;1.63;1.38;;;17.20;64.70;;;;;;5096818;27;45411;-74
2023/03/20 06:44:50;;;;;;;1.45;1.10;;;17.20;64.80;;;;;;5108641;27;45303;-74
2023/03/20 06:47:17;;;;;;;3.50;1.38;;;17.20;64.90;;;;;;5107983;27;46889;-75
2023/03/20 06:49:44;;;;;;;2.95;1.80;;;17.20;65.00;;;;;;5087477;27;45405;-74
2023/03/20 06:52:15;;;;;;;3.25;1.50;;;17.20;65.10;;;;;;5103380;27;45290;-74
2023/03/20 06:54:42;;;;;;;2.80;1.40;;;17.20;65.20;;;;;;5095287;27;45432;-75
2023/03/20 06:57:09;;;;;;;2.35;1.40;;;17.20;65.20;;;;;;5102941;27;47224;-73
2023/03/20 06:59:36;;;;;;;1.58;1.33;;;17.20;65.20;;;;;;5095222;27;45442;-75
2023/03/20 07:02:04;;;;;;;2.30;1.35;;;17.30;65.30;;;;;;5102040;27;45349;-75
2023/03/20 07:04:31;;;;;;;2.88;1.10;;;17.30;65.20;;;;;;5097582;27;45292;-74
2023/03/20 07:06:58;;;;;;;2.28;1.25;;;17.30;65.00;;;;;;5109283;27;46642;-74
2023/03/20 07:09:26;;;;;;;1.92;1.08;;;17.30;64.90;;;;;;5101319;27;45499;-74
2023/03/20 07:11:53;;;;;;;1.35;1.05;;;17.30;65.00;;;;;;5090825;27;45579;-74
2023/03/20 07:14:21;;;;;;;2.63;1.33;;;17.30;64.70;;;;;;5100823;27;45485;-74
2023/03/20 07:16:48;;;;;;;1.70;1.08;;;17.30;64.80;;;;;;5101889;27;47572;-74
2023/03/20 07:19:16;;;;;;;1.60;1.10;;;17.30;64.50;;;;;;5095855;27;45374;-74
2023/03/20 07:21:43;;;;;;;2.53;1.38;;;17.30;64.30;;;;;;5104777;27;45340;-74
2023/03/20 07:24:10;;;;;;;2.35;1.27;;;17.30;63.80;;;;;;5088213;27;45412;-74
2023/03/20 07:26:38;;;;;;;2.50;1.02;;;17.30;63.90;;;;;;5084631;27;46599;-74
2023/03/20 07:29:05;;;;;;;2.03;1.10;;;17.30;64.00;;;;;;5107238;27;45361;-74
2023/03/20 07:31:32;;;;;;;2.00;1.20;;;17.30;64.10;;;;;;5104103;27;45709;-74
2023/03/20 07:33:59;;;;;;;2.63;1.30;;;17.30;64.20;;;;;;5098400;27;45444;-74
2023/03/20 07:36:27;;;;;;;2.33;1.00;;;17.30;64.30;;;;;;5085714;27;46594;-74
2023/03/20 07:38:53;;;;;;;1.95;1.33;;;17.30;64.30;;;;;;5100492;27;45478;-74
2023/03/20 07:41:20;;;;;;;1.90;1.30;;;17.30;64.30;;;;;;5107463;27;45462;-74
2023/03/20 07:43:47;;;;;;;3.15;1.10;;;17.30;64.30;;;;;;5096758;27;45432;-74
2023/03/20 07:46:14;;;;;;;1.40;1.10;;;17.30;64.40;;;;;;5093145;27;47016;-74
2023/03/20 07:48:41;;;;;;;1.63;1.00;;;17.30;64.40;;;;;;5093110;27;45370;-74
2023/03/20 07:51:08;;;;;;;1.48;1.05;;;17.30;64.50;;;;;;5086188;27;45501;-75
2023/03/20 07:53:36;;;;;;;1.90;1.08;;;17.30;64.70;;;;;;5100329;27;45358;-74
2023/03/20 07:56:03;;;;;;;3.58;1.10;;;17.30;64.70;;;;;;5110098;27;45677;-74
2023/03/20 07:58:30;;;;;;;1.23;1.02;;;17.30;64.70;;;;;;5109655;27;45405;-75
2023/03/20 08:00:57;;;;;;;0.95;0.80;;;17.30;64.70;;;;;;5107225;27;45310;-75
2023/03/20 08:03:24;;;;;;;3.20;1.23;;;17.30;64.70;;;;;;5089450;27;45284;-75
2023/03/20 08:05:51;;;;;;;1.75;1.10;;;17.30;64.60;;;;;;5112124;27;45572;-75
2023/03/20 08:08:18;;;;;;;1.92;1.20;;;17.30;64.20;;;;;;5106831;27;45474;-74
2023/03/20 08:10:46;;;;;;;1.95;1.08;;;17.30;64.00;;;;;;5106638;27;45389;-74
2023/03/20 08:13:13;;;;;;;0.73;0.73;;;17.30;63.70;;;;;;5100265;27;45425;-74
2023/03/20 08:15:40;;;;;;;2.55;1.20;;;17.30;63.10;;;;;;5100137;27;45384;-74
2023/03/20 08:18:06;;;;;;;2.90;1.40;;;17.30;62.50;;;;;;5087653;27;45398;-74
2023/03/20 08:20:33;;;;;;;1.90;0.98;;;17.30;62.50;;;;;;5102711;27;45467;-74
2023/03/20 08:23:00;;;;;;;1.77;1.13;;;17.20;62.50;;;;;;5107624;27;45412;-74
2023/03/20 08:25:31;;;;;;;1.90;1.13;;;17.20;62.20;;;;;;5112533;27;46852;-74
2023/03/20 08:27:59;;;;;;;1.80;1.30;;;17.20;62.40;;;;;;5093065;27;45316;-74
2023/03/20 08:30:26;;;;;;;2.63;1.13;;;17.20;62.30;;;;;;5094444;27;45309;-74
2023/03/20 08:32:53;;;;;;;2.63;1.25;;;17.20;61.70;;;;;;5093043;27;45438;-74
2023/03/20 08:35:20;;;;;;;2.13;1.05;;;17.20;61.70;;;;;;5103812;27;46487;-74
2023/03/20 08:37:47;;;;;;;1.90;1.20;;;17.20;61.90;;;;;;5090259;27;45373;-74
2023/03/20 08:40:14;;;;;;;2.03;1.13;;;17.20;62.10;;;;;;5092935;27;45494;-74
2023/03/20 08:42:41;;;;;;;2.42;1.20;;;17.20;62.00;;;;;;5091311;27;45433;-74
2023/03/20 08:45:10;;;;;;;3.25;1.20;;;17.20;62.30;;;;;;5090742;27;47246;-74
2023/03/20 08:47:37;;;;;;;2.50;1.15;;;17.30;62.60;;;;;;5090823;27;45676;-74
2023/03/20 08:50:04;;;;;;;1.60;1.05;;;17.30;62.90;;;;;;5095134;27;45732;-74
2023/03/20 08:52:30;;;;;;;1.55;1.08;;;17.30;62.90;;;;;;5093587;27;45421;-74
2023/03/20 08:54:57;;;;;;;1.10;0.77;;;17.30;62.90;;;;;;5099829;27;47273;-75
2023/03/20 08:57:25;;;;;;;12.20;2.38;;;17.30;62.90;;;;;;5097388;27;45318;-75
2023/03/20 08:59:51;;;;;;;13.07;1.58;;;17.40;63.50;;;;;;5106576;27;45439;-75
2023/03/20 09:02:20;;;;;;;9.02;1.55;;;17.40;63.40;;;;;;5116874;27;45225;-76
2023/03/20 09:04:46;;;;;;;4.82;1.05;;;17.50;63.60;;;;;;5102809;27;46617;-75
2023/03/20 09:07:14;;;;;;;4.40;0.80;;;17.50;63.40;;;;;;5105356;27;45429;-75
2023/03/20 09:09:41;;;;;;;1.40;0.70;;;17.50;63.50;;;;;;5092981;27;45209;-75
2023/03/20 09:12:08;;;;;;;5.07;1.02;;;17.50;64.30;;;;;;5098912;27;45224;-76
2023/03/20 09:14:35;;;;;;;8.07;0.93;;;17.50;63.30;;;;;;5094680;27;46596;-76
2023/03/20 09:17:01;;;;;;;2.47;0.60;;;17.50;63.30;;;;;;5086448;27;45381;-75
2023/03/20 09:19:30;;;;;;;2.35;0.82;;;17.50;63.30;;;;;;5093034;27;45673;-76
2023/03/20 09:21:56;;;;;;;2.53;0.80;;;17.50;63.10;;;;;;5100347;27;45527;-75
2023/03/20 09:24:23;;;;;;;3.20;0.82;;;17.50;63.10;;;;;;5085644;27;46599;-76
2023/03/20 09:26:51;;;;;;;1.15;0.52;;;17.50;63.00;;;;;;5092730;27;45435;-76
2023/03/20 09:29:17;;;;;;;2.13;0.73;;;17.50;62.80;;;;;;5093731;27;45371;-76
2023/03/20 09:31:44;;;;;;;3.47;0.73;;;17.50;62.70;;;;;;5100984;27;45288;-76
2023/03/20 09:34:11;;;;;;;1.52;0.70;;;17.50;62.60;;;;;;5108080;27;47035;-76
2023/03/20 09:36:39;;;;;;;1.30;0.57;;;17.50;62.40;;;;;;5105651;27;45387;-75
2023/03/20 09:39:06;;;;;;;3.33;0.70;;;17.50;62.40;;;;;;5107632;27;45392;-76
2023/03/20 09:41:36;;;;;;;2.13;0.70;;;17.50;62.30;;;;;;5104460;27;45388;-76
2023/03/20 09:44:13;;;;;;;1.10;0.63;;;17.60;62.10;;;;;;5105273;27;47239;-76
2023/03/20 09:47:09;;;;;;;0.98;0.50;;;17.50;62.10;;;;;;5105505;27;45471;-76
2023/03/20 09:49:43;;;;;;;1.05;0.50;;;17.60;62.10;;;;;;5104963;27;45427;-76
2023/03/20 09:52:20;;;;;;;1.67;0.65;;;17.60;61.90;;;;;;5090155;27;45240;-76
2023/03/20 09:54:50;;;;;;;2.90;0.57;;;17.60;61.70;;;;;;5106127;27;47941;-76
2023/03/20 09:57:21;;;;;;;1.50;0.70;;;17.60;61.60;;;;;;5090264;27;45275;-76
2023/03/20 09:59:50;;;;;;;1.90;0.50;;;17.60;61.50;;;;;;5093921;27;45463;-76
2023/03/20 10:02:23;;;;;;;0.88;0.43;;;17.70;61.60;;;;;;5100662;27;45288;-75
2023/03/20 10:04:54;;;;;;;0.98;0.50;;;17.70;61.60;;;;;;5101252;27;45511;-76
2023/03/20 10:07:23;;;;;;;0.60;0.50;;;17.70;61.20;;;;;;5104860;27;45491;-76
2023/03/20 10:09:49;;;;;;;0.75;0.40;;;17.70;61.10;;;;;;5105788;27;45541;-76
2023/03/20 10:12:38;;;;;;;1.17;0.50;;;17.70;61.00;;;;;;5099932;27;45570;-76
2023/03/20 10:15:14;;;;;;;0.60;0.50;;;17.70;61.10;;;;;;5105319;27;47991;-76
2023/03/20 10:17:51;;;;;;;0.80;0.52;;;17.70;61.30;;;;;;5105434;27;45412;-76
2023/03/20 10:20:25;;;;;;;1.27;0.55;;;17.70;60.90;;;;;;5101349;27;45623;-75
2023/03/20 10:22:58;;;;;;;0.45;0.40;;;17.60;61.20;;;;;;5106735;27;45320;-76
2023/03/20 10:25:30;;;;;;;1.23;0.60;;;17.60;61.00;;;;;;5104992;27;48397;-76
2023/03/20 10:27:59;;;;;;;1.35;0.57;;;17.70;60.90;;;;;;5085390;27;45280;-75
2023/03/20 10:30:38;;;;;;;0.90;0.60;;;17.70;61.10;;;;;;5088292;27;45256;-76
2023/03/20 10:33:16;;;;;;;0.73;0.60;;;17.60;60.80;;;;;;5093118;27;45496;-75
2023/03/20 10:35:50;;;;;;;0.70;0.50;;;17.60;60.80;;;;;;5094289;27;48061;-76
2023/03/20 10:38:29;;;;;;;1.33;0.43;;;17.60;60.60;;;;;;5096725;27;45620;-76
2023/03/20 10:40:57;;;;;;;1.25;0.40;;;17.60;60.70;;;;;;5104895;27;45489;-76
2023/03/20 10:43:29;;;;;;;1.17;0.50;;;17.60;60.70;;;;;;5104816;27;45693;-76
2023/03/20 10:46:02;;;;;;;0.90;0.45;;;17.60;61.00;;;;;;5113769;27;47851;-76
2023/03/20 10:48:33;;;;;;;0.82;0.50;;;17.60;60.80;;;;;;5105388;27;45435;-75
2023/03/20 10:51:03;;;;;;;2.10;0.80;;;17.60;61.10;;;;;;5111557;27;45272;-75
2023/03/20 10:53:41;;;;;;;2.47;0.95;;;17.60;60.70;;;;;;5104681;27;45252;-75
2023/03/20 10:56:13;;;;;;;1.25;0.50;;;17.60;60.70;;;;;;5095815;27;48073;-75
2023/03/20 10:58:43;;;;;;;1.35;0.60;;;17.60;60.80;;;;;;5089622;27;45746;-75
2023/03/20 11:01:10;;;;;;;2.47;0.50;;;17.70;60.70;;;;;;5111194;27;45500;-75
2023/03/20 11:03:38;;;;;;;0.80;0.43;;;17.70;62.10;;;;;;5110396;27;45569;-75
2023/03/20 11:06:12;;;;;;;1.00;0.50;;;17.70;60.90;;;;;;5106804;27;45495;-76
2023/03/20 11:08:43;;;;;;;0.20;0.20;;;17.70;60.70;;;;;;5096777;27;46154;-75
2023/03/20 11:11:10;;;;;;;2.55;0.57;;;17.70;60.50;;;;;;5098158;27;45478;-75
2023/03/20 11:13:39;;;;;;;0.95;0.43;;;17.70;60.00;;;;;;5111623;27;45412;-75
2023/03/20 11:16:20;;;;;;;1.17;0.57;;;17.70;59.90;;;;;;5096040;27;47456;-76
2023/03/20 11:18:48;;;;;;;0.68;0.50;;;17.70;60.00;;;;;;5106292;27;45181;-76
2023/03/20 11:21:19;;;;;;;0.50;0.43;;;17.70;60.80;;;;;;5091048;27;45448;-76
2023/03/20 11:23:48;;;;;;;1.40;0.28;;;17.70;60.60;;;;;;5116693;27;45291;-75
2023/03/20 11:26:17;;;;;;;1.05;0.40;;;17.70;60.80;;;;;;5106635;27;46680;-75
2023/03/20 11:28:50;;;;;;;0.82;0.40;;;17.70;60.60;;;;;;5095800;27;45365;-75
2023/03/20 11:31:20;;;;;;;0.65;0.40;;;17.60;60.80;;;;;;5123968;27;45386;-75
2023/03/20 11:33:51;;;;;;;0.95;0.60;;;17.60;60.70;;;;;;5111521;27;45415;-76
2023/03/20 11:36:24;;;;;;;0.75;0.40;;;17.60;61.00;;;;;;5100577;27;46473;-76
2023/03/20 11:38:57;;;;;;;0.95;0.52;;;17.60;61.00;;;;;;5087652;27;46366;-76
2023/03/20 11:41:27;;;;;;;0.95;0.40;;;17.60;61.10;;;;;;5093641;27;45357;-75
2023/03/20 11:43:54;;;;;;;1.05;0.38;;;17.60;60.90;;;;;;5115662;27;45285;-76
2023/03/20 11:46:22;;;;;;;1.05;0.50;;;17.60;61.20;;;;;;5104867;27;46816;-75
2023/03/20 11:49:04;;;;;;;0.75;0.50;;;17.60;61.20;;;;;;5104930;27;45384;-76
2023/03/20 11:51:34;;;;;;;1.40;0.55;;;17.60;61.30;;;;;;5094669;27;45486;-75
2023/03/20 11:54:05;;;;;;;1.05;0.40;;;17.60;61.40;;;;;;5095295;27;45507;-75
2023/03/20 11:56:33;;;;;;;0.52;0.40;;;17.60;61.30;;;;;;5099681;27;47336;-75
2023/03/20 11:59:03;;;;;;;1.60;0.50;;;17.60;61.40;;;;;;5093556;27;45182;-76
2023/03/20 12:01:39;;;;;;;0.30;0.30;;;17.60;61.40;;;;;;5097271;27;45463;-76
2023/03/20 12:04:12;;;;;;;0.38;0.32;;;17.60;61.50;;;;;;5104793;27;45421;-76
2023/03/20 12:06:47;;;;;;;1.02;0.52;;;17.60;61.60;;;;;;5104602;27;48363;-77
2023/03/20 12:09:28;;;;;;;0.93;0.30;;;17.60;61.80;;;;;;5106756;27;45364;-76
2023/03/20 12:11:59;;;;;;;0.85;0.40;;;17.70;61.90;;;;;;5104998;27;45342;-76
2023/03/20 12:14:32;;;;;;;0.60;0.40;;;17.60;61.90;;;;;;5097866;27;45637;-76
2023/03/20 12:17:14;;;;;;;0.50;0.40;;;17.60;61.90;;;;;;5091907;27;47007;-76
2023/03/20 12:19:43;;;;;;;0.45;0.30;;;17.60;61.80;;;;;;5107943;27;45271;-76
2023/03/20 12:22:21;;;;;;;1.30;0.50;;;17.60;61.70;;;;;;5106624;27;45411;-76
2023/03/20 12:24:58;;;;;;;0.93;0.40;;;17.60;61.60;;;;;;5103686;27;45339;-76
2023/03/20 12:27:30;;;;;;;0.60;0.30;;;17.60;61.50;;;;;;5103791;27;45361;-77
2023/03/20 12:30:05;;;;;;;0.85;0.47;;;17.60;61.50;;;;;;5120524;27;45434;-76
2023/03/20 12:32:40;;;;;;;0.43;0.30;;;17.60;61.70;;;;;;5103219;27;45324;-76
2023/03/20 12:35:13;;;;;;;1.60;0.32;;;17.60;61.70;;;;;;5112305;27;45509;-76
2023/03/20 12:37:39;;;;;;;0.98;0.35;;;17.60;61.80;;;;;;5108185;27;46414;-76
2023/03/20 12:40:16;;;;;;;0.57;0.30;;;17.60;61.70;;;;;;5116834;27;45233;-77
2023/03/20 12:42:54;;;;;;;1.05;0.40;;;17.70;61.60;;;;;;5094805;27;45415;-76
2023/03/20 12:45:23;;;;;;;0.32;0.30;;;17.70;61.40;;;;;;5093481;27;45527;-72
2023/03/20 12:48:37;;;;;;;6.55;0.75;;;17.70;61.50;;;;;;5108126;27;46047;-75
2023/03/20 12:51:11;;;;;;;5.22;0.73;;;17.70;64.20;;;;;;5044442;28;45639;-75
2023/03/20 12:53:49;;;;;;;1.27;0.32;;;17.70;63.50;;;;;;5105116;27;45489;-75
2023/03/20 12:56:29;;;;;;;0.98;0.32;;;17.70;63.20;;;;;;5094946;27;45579;-75
2023/03/20 12:59:06;;;;;;;3.15;0.40;;;17.70;63.20;;;;;;5086451;27;46456;-75
2023/03/20 13:01:40;;;;;;;0.95;0.55;;;17.70;63.20;;;;;;5094677;27;45304;-75
2023/03/20 13:04:22;;;;;;;0.55;0.30;;;17.60;63.20;;;;;;5101725;27;45198;-75